sensor_id;sensor_type;location;lat;lon;timestamp;temperature;humidity
439;DHT22;206;48.782;9.252;2022-07-03T00:00:10;21.70;31.30
439;DHT22;206;48.782;9.252;2022-07-03T00:02:36;21.70;31.30
439;DHT22;206;48.782;9.252;2022-07-03T00:05:02;21.60;31.30
439;DHT22;206;48.782;9.252;2022-07-03T00:07:28;21.60;31.50
439;DHT22;206;48.782;9.252;2022-07-03T00:09:53;21.60;31.60
439;DHT22;206;48.782;9.252;2022-07-03T00:12:19;21.60;31.90
439;DHT22;206;48.782;9.252;2022-07-03T00:14:45;21.60;32.20
439;DHT22;206;48.782;9.252;2022-07-03T00:17:11;21.60;32.60
439;DHT22;206;48.782;9.252;2022-07-03T00:19:36;21.60;32.70
439;DHT22;206;48.782;9.252;2022-07-03T00:22:04;21.50;33.20
439;DHT22;206;48.782;9.252;2022-07-03T00:27:05;21.50;33.70
439;DHT22;206;48.782;9.252;2022-07-03T00:29:38;21.50;33.70
439;DHT22;206;48.782;9.252;2022-07-03T00:32:06;21.50;34.30
439;DHT22;206;48.782;9.252;2022-07-03T00:34:33;21.40;34.80
439;DHT22;206;48.782;9.252;2022-07-03T00:37:00;21.40;35.20
439;DHT22;206;48.782;9.252;2022-07-03T00:39:27;21.30;35.60
439;DHT22;206;48.782;9.252;2022-07-03T00:42:03;21.20;36.10
439;DHT22;206;48.782;9.252;2022-07-03T00:44:30;21.10;36.40
439;DHT22;206;48.782;9.252;2022-07-03T00:46:58;21.10;36.80
439;DHT22;206;48.782;9.252;2022-07-03T00:49:24;21.10;36.70
439;DHT22;206;48.782;9.252;2022-07-03T00:51:52;21.10;36.80
439;DHT22;206;48.782;9.252;2022-07-03T00:54:21;21.00;36.70
439;DHT22;206;48.782;9.252;2022-07-03T00:56:51;21.00;36.80
439;DHT22;206;48.782;9.252;2022-07-03T00:59:18;21.00;36.70
439;DHT22;206;48.782;9.252;2022-07-03T01:01:45;21.00;36.70
439;DHT22;206;48.782;9.252;2022-07-03T01:04:20;21.00;36.60
439;DHT22;206;48.782;9.252;2022-07-03T01:07:07;21.00;36.50
439;DHT22;206;48.782;9.252;2022-07-03T01:10:03;21.00;36.60
439;DHT22;206;48.782;9.252;2022-07-03T01:20:53;21.00;36.40
439;DHT22;206;48.782;9.252;2022-07-03T01:26:28;20.90;36.80
439;DHT22;206;48.782;9.252;2022-07-03T01:28:59;20.90;37.00
439;DHT22;206;48.782;9.252;2022-07-03T01:31:30;20.90;37.20
439;DHT22;206;48.782;9.252;2022-07-03T01:33:58;20.90;37.30
439;DHT22;206;48.782;9.252;2022-07-03T01:36:29;20.90;37.60
439;DHT22;206;48.782;9.252;2022-07-03T01:38:57;20.90;37.60
439;DHT22;206;48.782;9.252;2022-07-03T01:41:24;20.90;37.90
439;DHT22;206;48.782;9.252;2022-07-03T01:43:56;20.90;38.00
439;DHT22;206;48.782;9.252;2022-07-03T01:46:28;20.90;38.30
439;DHT22;206;48.782;9.252;2022-07-03T01:48:55;20.90;38.40
439;DHT22;206;48.782;9.252;2022-07-03T01:51:21;20.90;38.60
439;DHT22;206;48.782;9.252;2022-07-03T01:53:49;20.80;39.40
439;DHT22;206;48.782;9.252;2022-07-03T01:56:17;20.80;39.00
439;DHT22;206;48.782;9.252;2022-07-03T01:58:43;20.80;39.30
439;DHT22;206;48.782;9.252;2022-07-03T02:01:22;20.80;39.50
439;DHT22;206;48.782;9.252;2022-07-03T02:09:49;20.60;40.00
439;DHT22;206;48.782;9.252;2022-07-03T02:12:19;20.60;40.30
439;DHT22;206;48.782;9.252;2022-07-03T02:15:02;20.50;40.80
439;DHT22;206;48.782;9.252;2022-07-03T02:17:31;20.50;41.10
439;DHT22;206;48.782;9.252;2022-07-03T02:20:03;20.40;41.30
439;DHT22;206;48.782;9.252;2022-07-03T02:22:35;20.40;41.50
439;DHT22;206;48.782;9.252;2022-07-03T02:25:06;20.40;41.50
439;DHT22;206;48.782;9.252;2022-07-03T02:27:42;20.30;41.70
439;DHT22;206;48.782;9.252;2022-07-03T02:30:11;20.30;42.00
439;DHT22;206;48.782;9.252;2022-07-03T02:32:40;20.30;42.20
439;DHT22;206;48.782;9.252;2022-07-03T02:35:28;20.30;42.20
439;DHT22;206;48.782;9.252;2022-07-03T02:38:16;20.30;42.90
439;DHT22;206;48.782;9.252;2022-07-03T02:41:06;20.30;42.90
439;DHT22;206;48.782;9.252;2022-07-03T02:43:43;20.20;42.90
439;DHT22;206;48.782;9.252;2022-07-03T02:46:20;20.20;42.90
439;DHT22;206;48.782;9.252;2022-07-03T02:51:54;20.20;43.00
439;DHT22;206;48.782;9.252;2022-07-03T02:54:24;20.20;43.20
439;DHT22;206;48.782;9.252;2022-07-03T02:57:08;20.10;43.10
439;DHT22;206;48.782;9.252;2022-07-03T02:59:56;20.10;43.30
439;DHT22;206;48.782;9.252;2022-07-03T03:02:39;20.10;43.70
439;DHT22;206;48.782;9.252;2022-07-03T03:05:09;20.10;44.00
439;DHT22;206;48.782;9.252;2022-07-03T03:10:37;20.00;44.20
439;DHT22;206;48.782;9.252;2022-07-03T03:13:11;20.00;44.60
439;DHT22;206;48.782;9.252;2022-07-03T03:15:39;20.00;44.70
439;DHT22;206;48.782;9.252;2022-07-03T03:18:07;20.00;45.00
439;DHT22;206;48.782;9.252;2022-07-03T03:20:37;20.00;45.20
439;DHT22;206;48.782;9.252;2022-07-03T03:25:31;19.90;45.40
439;DHT22;206;48.782;9.252;2022-07-03T03:27:59;19.90;45.30
439;DHT22;206;48.782;9.252;2022-07-03T03:30:24;19.90;45.40
439;DHT22;206;48.782;9.252;2022-07-03T03:32:50;19.90;45.50
439;DHT22;206;48.782;9.252;2022-07-03T03:35:16;19.90;45.60
439;DHT22;206;48.782;9.252;2022-07-03T03:37:43;19.90;45.70
439;DHT22;206;48.782;9.252;2022-07-03T03:40:09;19.90;45.60
439;DHT22;206;48.782;9.252;2022-07-03T03:42:35;19.80;45.60
439;DHT22;206;48.782;9.252;2022-07-03T03:45:00;19.80;45.70
439;DHT22;206;48.782;9.252;2022-07-03T03:47:26;19.80;45.80
439;DHT22;206;48.782;9.252;2022-07-03T03:49:52;19.80;46.10
439;DHT22;206;48.782;9.252;2022-07-03T03:52:17;19.80;46.20
439;DHT22;206;48.782;9.252;2022-07-03T03:54:43;19.80;46.10
439;DHT22;206;48.782;9.252;2022-07-03T03:57:19;19.80;46.30
439;DHT22;206;48.782;9.252;2022-07-03T03:59:45;19.80;46.40
439;DHT22;206;48.782;9.252;2022-07-03T04:02:11;19.80;46.70
439;DHT22;206;48.782;9.252;2022-07-03T04:04:38;19.70;46.80
439;DHT22;206;48.782;9.252;2022-07-03T04:07:03;19.70;46.90
439;DHT22;206;48.782;9.252;2022-07-03T04:09:29;19.70;46.90
439;DHT22;206;48.782;9.252;2022-07-03T04:11:56;19.70;47.40
439;DHT22;206;48.782;9.252;2022-07-03T04:14:22;19.70;47.50
439;DHT22;206;48.782;9.252;2022-07-03T04:16:47;19.60;47.30
439;DHT22;206;48.782;9.252;2022-07-03T04:19:13;19.60;47.40
439;DHT22;206;48.782;9.252;2022-07-03T04:21:39;19.60;47.40
439;DHT22;206;48.782;9.252;2022-07-03T04:24:04;19.60;47.50
439;DHT22;206;48.782;9.252;2022-07-03T04:26:30;19.60;47.50
439;DHT22;206;48.782;9.252;2022-07-03T04:28:56;19.60;47.70
439;DHT22;206;48.782;9.252;2022-07-03T04:31:21;19.60;47.80
439;DHT22;206;48.782;9.252;2022-07-03T04:33:47;19.60;48.00
439;DHT22;206;48.782;9.252;2022-07-03T04:36:12;19.60;47.80
439;DHT22;206;48.782;9.252;2022-07-03T04:38:38;19.60;47.90
439;DHT22;206;48.782;9.252;2022-07-03T04:41:04;19.60;48.20
439;DHT22;206;48.782;9.252;2022-07-03T04:43:29;19.60;47.90
439;DHT22;206;48.782;9.252;2022-07-03T04:45:55;19.70;48.00
439;DHT22;206;48.782;9.252;2022-07-03T04:48:21;19.70;48.00
439;DHT22;206;48.782;9.252;2022-07-03T04:50:46;19.70;47.90
439;DHT22;206;48.782;9.252;2022-07-03T04:53:12;19.70;47.70
439;DHT22;206;48.782;9.252;2022-07-03T04:55:37;19.70;47.70
439;DHT22;206;48.782;9.252;2022-07-03T04:58:03;19.80;47.50
439;DHT22;206;48.782;9.252;2022-07-03T05:00:29;19.80;47.50
439;DHT22;206;48.782;9.252;2022-07-03T05:02:54;19.90;47.60
439;DHT22;206;48.782;9.252;2022-07-03T05:05:20;19.90;47.50
439;DHT22;206;48.782;9.252;2022-07-03T05:07:46;19.90;47.10
439;DHT22;206;48.782;9.252;2022-07-03T05:10:12;20.00;46.90
439;DHT22;206;48.782;9.252;2022-07-03T05:12:38;20.00;46.60
439;DHT22;206;48.782;9.252;2022-07-03T05:15:04;20.10;46.60
439;DHT22;206;48.782;9.252;2022-07-03T05:17:29;20.10;46.50
439;DHT22;206;48.782;9.252;2022-07-03T05:19:55;20.20;46.40
439;DHT22;206;48.782;9.252;2022-07-03T05:22:39;20.20;46.40
439;DHT22;206;48.782;9.252;2022-07-03T05:25:05;20.30;46.30
439;DHT22;206;48.782;9.252;2022-07-03T05:27:31;20.40;46.00
439;DHT22;206;48.782;9.252;2022-07-03T05:30:00;20.60;45.30
439;DHT22;206;48.782;9.252;2022-07-03T05:32:25;20.80;44.40
439;DHT22;206;48.782;9.252;2022-07-03T05:34:51;21.10;43.70
439;DHT22;206;48.782;9.252;2022-07-03T05:37:16;21.30;42.70
439;DHT22;206;48.782;9.252;2022-07-03T05:39:42;21.60;41.70
439;DHT22;206;48.782;9.252;2022-07-03T05:42:08;21.80;40.70
439;DHT22;206;48.782;9.252;2022-07-03T05:44:33;21.90;40.10
439;DHT22;206;48.782;9.252;2022-07-03T05:46:59;22.00;39.30
439;DHT22;206;48.782;9.252;2022-07-03T05:49:24;22.20;39.30
439;DHT22;206;48.782;9.252;2022-07-03T05:51:50;22.30;38.50
439;DHT22;206;48.782;9.252;2022-07-03T05:54:15;22.40;38.00
439;DHT22;206;48.782;9.252;2022-07-03T05:56:41;22.50;37.80
439;DHT22;206;48.782;9.252;2022-07-03T05:59:07;22.50;37.50
439;DHT22;206;48.782;9.252;2022-07-03T06:01:32;22.60;37.30
439;DHT22;206;48.782;9.252;2022-07-03T06:03:58;22.60;37.30
439;DHT22;206;48.782;9.252;2022-07-03T06:06:24;22.60;37.50
439;DHT22;206;48.782;9.252;2022-07-03T06:08:49;22.60;37.60
439;DHT22;206;48.782;9.252;2022-07-03T06:11:15;22.70;37.70
439;DHT22;206;48.782;9.252;2022-07-03T06:13:41;22.80;37.40
439;DHT22;206;48.782;9.252;2022-07-03T06:16:06;22.90;37.10
439;DHT22;206;48.782;9.252;2022-07-03T06:18:32;23.00;36.60
439;DHT22;206;48.782;9.252;2022-07-03T06:20:57;23.00;36.60
439;DHT22;206;48.782;9.252;2022-07-03T06:23:23;23.20;36.60
439;DHT22;206;48.782;9.252;2022-07-03T06:25:48;23.30;35.40
439;DHT22;206;48.782;9.252;2022-07-03T06:28:14;23.60;35.60
439;DHT22;206;48.782;9.252;2022-07-03T06:30:39;23.80;34.60
439;DHT22;206;48.782;9.252;2022-07-03T06:33:05;24.00;34.00
439;DHT22;206;48.782;9.252;2022-07-03T06:35:31;24.20;33.40
439;DHT22;206;48.782;9.252;2022-07-03T06:38:01;24.50;33.00
439;DHT22;206;48.782;9.252;2022-07-03T06:40:27;24.70;32.20
439;DHT22;206;48.782;9.252;2022-07-03T06:42:53;25.00;31.60
439;DHT22;206;48.782;9.252;2022-07-03T06:45:18;25.30;31.00
439;DHT22;206;48.782;9.252;2022-07-03T06:47:44;25.50;29.90
439;DHT22;206;48.782;9.252;2022-07-03T06:50:10;25.70;29.40
439;DHT22;206;48.782;9.252;2022-07-03T06:52:35;26.00;28.90
439;DHT22;206;48.782;9.252;2022-07-03T06:55:01;26.20;28.30
439;DHT22;206;48.782;9.252;2022-07-03T06:57:26;26.40;27.90
439;DHT22;206;48.782;9.252;2022-07-03T06:59:52;26.70;28.10
439;DHT22;206;48.782;9.252;2022-07-03T07:02:18;27.00;27.20
439;DHT22;206;48.782;9.252;2022-07-03T07:04:43;27.20;26.60
439;DHT22;206;48.782;9.252;2022-07-03T07:07:09;27.30;26.00
439;DHT22;206;48.782;9.252;2022-07-03T07:09:35;27.50;25.80
439;DHT22;206;48.782;9.252;2022-07-03T07:12:00;27.70;25.60
439;DHT22;206;48.782;9.252;2022-07-03T07:14:26;27.90;25.40
439;DHT22;206;48.782;9.252;2022-07-03T07:16:51;28.00;25.00
439;DHT22;206;48.782;9.252;2022-07-03T07:19:17;28.20;24.90
439;DHT22;206;48.782;9.252;2022-07-03T07:21:43;28.30;24.50
439;DHT22;206;48.782;9.252;2022-07-03T07:24:08;28.60;24.20
439;DHT22;206;48.782;9.252;2022-07-03T07:26:34;28.80;23.80
439;DHT22;206;48.782;9.252;2022-07-03T07:29:00;29.00;23.50
439;DHT22;206;48.782;9.252;2022-07-03T07:31:25;29.20;23.30
439;DHT22;206;48.782;9.252;2022-07-03T07:33:51;29.40;23.00
439;DHT22;206;48.782;9.252;2022-07-03T07:36:16;29.70;21.90
439;DHT22;206;48.782;9.252;2022-07-03T07:38:42;29.90;21.60
439;DHT22;206;48.782;9.252;2022-07-03T07:41:08;30.00;21.10
439;DHT22;206;48.782;9.252;2022-07-03T07:43:34;30.10;20.70
439;DHT22;206;48.782;9.252;2022-07-03T07:46:00;30.20;20.70
439;DHT22;206;48.782;9.252;2022-07-03T07:48:25;30.30;20.70
439;DHT22;206;48.782;9.252;2022-07-03T07:50:51;30.40;20.00
439;DHT22;206;48.782;9.252;2022-07-03T07:53:17;30.60;19.80
439;DHT22;206;48.782;9.252;2022-07-03T07:55:43;30.60;19.70
439;DHT22;206;48.782;9.252;2022-07-03T07:58:08;30.60;19.20
439;DHT22;206;48.782;9.252;2022-07-03T08:00:34;30.80;18.90
439;DHT22;206;48.782;9.252;2022-07-03T08:03:00;30.90;17.90
439;DHT22;206;48.782;9.252;2022-07-03T08:05:44;30.90;17.40
439;DHT22;206;48.782;9.252;2022-07-03T08:08:14;30.90;17.00
439;DHT22;206;48.782;9.252;2022-07-03T08:10:45;31.00;16.90
439;DHT22;206;48.782;9.252;2022-07-03T08:13:12;31.00;16.60
439;DHT22;206;48.782;9.252;2022-07-03T08:15:40;31.00;16.70
439;DHT22;206;48.782;9.252;2022-07-03T08:18:06;31.10;16.20
439;DHT22;206;48.782;9.252;2022-07-03T08:20:33;31.00;16.50
439;DHT22;206;48.782;9.252;2022-07-03T08:22:59;31.00;16.50
439;DHT22;206;48.782;9.252;2022-07-03T08:25:25;31.00;16.30
439;DHT22;206;48.782;9.252;2022-07-03T08:27:51;31.10;15.60
439;DHT22;206;48.782;9.252;2022-07-03T08:30:17;31.20;15.10
439;DHT22;206;48.782;9.252;2022-07-03T08:32:46;31.30;14.20
439;DHT22;206;48.782;9.252;2022-07-03T08:35:12;31.60;13.60
439;DHT22;206;48.782;9.252;2022-07-03T08:37:38;31.80;12.10
439;DHT22;206;48.782;9.252;2022-07-03T08:40:07;32.00;11.40
439;DHT22;206;48.782;9.252;2022-07-03T08:42:36;32.20;10.70
439;DHT22;206;48.782;9.252;2022-07-03T08:45:02;32.30;10.10
439;DHT22;206;48.782;9.252;2022-07-03T08:47:29;32.40;10.10
439;DHT22;206;48.782;9.252;2022-07-03T08:49:57;32.50;9.70
439;DHT22;206;48.782;9.252;2022-07-03T08:52:24;32.60;9.60
439;DHT22;206;48.782;9.252;2022-07-03T08:54:50;32.70;9.50
439;DHT22;206;48.782;9.252;2022-07-03T08:57:16;32.70;9.00
439;DHT22;206;48.782;9.252;2022-07-03T08:59:45;32.70;8.70
439;DHT22;206;48.782;9.252;2022-07-03T09:02:12;32.70;8.70
439;DHT22;206;48.782;9.252;2022-07-03T09:04:38;32.70;7.80
439;DHT22;206;48.782;9.252;2022-07-03T09:07:06;32.70;7.90
439;DHT22;206;48.782;9.252;2022-07-03T09:09:33;32.60;8.30
439;DHT22;206;48.782;9.252;2022-07-03T09:11:59;32.50;7.70
439;DHT22;206;48.782;9.252;2022-07-03T09:14:25;32.50;7.90
439;DHT22;206;48.782;9.252;2022-07-03T09:16:51;32.40;8.40
439;DHT22;206;48.782;9.252;2022-07-03T09:19:48;32.30;8.00
439;DHT22;206;48.782;9.252;2022-07-03T09:22:19;32.20;8.60
439;DHT22;206;48.782;9.252;2022-07-03T09:25:14;32.20;8.90
439;DHT22;206;48.782;9.252;2022-07-03T09:27:52;32.10;8.80
439;DHT22;206;48.782;9.252;2022-07-03T09:30:18;32.00;7.50
439;DHT22;206;48.782;9.252;2022-07-03T09:32:46;31.90;7.60
439;DHT22;206;48.782;9.252;2022-07-03T09:35:23;31.80;7.70
439;DHT22;206;48.782;9.252;2022-07-03T09:38:00;31.60;8.10
439;DHT22;206;48.782;9.252;2022-07-03T09:40:47;31.50;8.40
439;DHT22;206;48.782;9.252;2022-07-03T09:43:13;31.40;8.90
439;DHT22;206;48.782;9.252;2022-07-03T09:51:21;31.10;9.40
439;DHT22;206;48.782;9.252;2022-07-03T09:53:59;31.10;9.20
439;DHT22;206;48.782;9.252;2022-07-03T09:56:37;31.00;9.30
439;DHT22;206;48.782;9.252;2022-07-03T09:59:06;31.00;9.80
439;DHT22;206;48.782;9.252;2022-07-03T10:01:43;30.90;8.20
439;DHT22;206;48.782;9.252;2022-07-03T10:04:15;30.90;7.20
439;DHT22;206;48.782;9.252;2022-07-03T10:06:58;30.80;7.20
439;DHT22;206;48.782;9.252;2022-07-03T10:09:34;30.80;7.40
439;DHT22;206;48.782;9.252;2022-07-03T10:12:02;30.70;7.90
439;DHT22;206;48.782;9.252;2022-07-03T10:14:31;30.70;7.60
439;DHT22;206;48.782;9.252;2022-07-03T10:16:56;30.70;7.70
439;DHT22;206;48.782;9.252;2022-07-03T10:19:30;30.70;8.60
439;DHT22;206;48.782;9.252;2022-07-03T10:22:19;30.70;9.40
439;DHT22;206;48.782;9.252;2022-07-03T10:24:47;30.70;9.20
439;DHT22;206;48.782;9.252;2022-07-03T10:27:13;30.70;9.20
439;DHT22;206;48.782;9.252;2022-07-03T10:29:39;30.70;9.20
439;DHT22;206;48.782;9.252;2022-07-03T10:32:07;30.70;9.00
439;DHT22;206;48.782;9.252;2022-07-03T10:34:33;30.80;8.80
439;DHT22;206;48.782;9.252;2022-07-03T10:37:03;30.80;8.70
439;DHT22;206;48.782;9.252;2022-07-03T10:40:07;30.80;8.60
439;DHT22;206;48.782;9.252;2022-07-03T10:43:09;30.80;8.60
439;DHT22;206;48.782;9.252;2022-07-03T10:46:17;30.70;8.40
439;DHT22;206;48.782;9.252;2022-07-03T10:48:58;30.60;8.60
439;DHT22;206;48.782;9.252;2022-07-03T10:51:25;30.60;9.40
439;DHT22;206;48.782;9.252;2022-07-03T10:53:50;30.60;9.40
439;DHT22;206;48.782;9.252;2022-07-03T11:02:41;30.70;8.70
439;DHT22;206;48.782;9.252;2022-07-03T11:05:09;30.70;8.70
439;DHT22;206;48.782;9.252;2022-07-03T11:13:13;30.80;8.80
439;DHT22;206;48.782;9.252;2022-07-03T11:15:44;30.80;8.80
439;DHT22;206;48.782;9.252;2022-07-03T11:23:17;30.90;9.40
439;DHT22;206;48.782;9.252;2022-07-03T11:25:46;30.90;9.40
439;DHT22;206;48.782;9.252;2022-07-03T11:36:33;31.10;9.40
439;DHT22;206;48.782;9.252;2022-07-03T11:41:43;31.10;9.50
439;DHT22;206;48.782;9.252;2022-07-03T11:44:13;31.20;9.30
439;DHT22;206;48.782;9.252;2022-07-03T11:46:40;31.20;9.20
439;DHT22;206;48.782;9.252;2022-07-03T11:51:37;31.20;9.30
439;DHT22;206;48.782;9.252;2022-07-03T11:54:03;31.10;9.40
439;DHT22;206;48.782;9.252;2022-07-03T11:56:30;31.10;9.80
439;DHT22;206;48.782;9.252;2022-07-03T11:58:58;31.20;10.20
439;DHT22;206;48.782;9.252;2022-07-03T12:04:15;31.30;9.50
439;DHT22;206;48.782;9.252;2022-07-03T12:06:46;31.30;9.20
439;DHT22;206;48.782;9.252;2022-07-03T12:09:27;31.40;9.80
439;DHT22;206;48.782;9.252;2022-07-03T12:22:34;31.50;8.90
439;DHT22;206;48.782;9.252;2022-07-03T12:25:07;31.50;9.00
439;DHT22;206;48.782;9.252;2022-07-03T12:27:35;31.50;8.90
439;DHT22;206;48.782;9.252;2022-07-03T12:30:01;31.50;9.20
439;DHT22;206;48.782;9.252;2022-07-03T12:32:27;31.60;8.90
439;DHT22;206;48.782;9.252;2022-07-03T12:34:54;31.60;8.80
439;DHT22;206;48.782;9.252;2022-07-03T12:37:40;31.60;8.70
439;DHT22;206;48.782;9.252;2022-07-03T12:40:08;31.60;8.60
439;DHT22;206;48.782;9.252;2022-07-03T12:42:54;31.70;8.30
439;DHT22;206;48.782;9.252;2022-07-03T12:45:26;31.70;8.30
439;DHT22;206;48.782;9.252;2022-07-03T12:47:59;31.70;8.30
439;DHT22;206;48.782;9.252;2022-07-03T12:50:26;31.70;8.40
439;DHT22;206;48.782;9.252;2022-07-03T12:52:56;31.70;8.30
439;DHT22;206;48.782;9.252;2022-07-03T12:55:27;31.80;8.60
439;DHT22;206;48.782;9.252;2022-07-03T12:58:13;31.80;8.10
439;DHT22;206;48.782;9.252;2022-07-03T13:00:58;31.80;8.30
439;DHT22;206;48.782;9.252;2022-07-03T13:03:27;31.80;7.90
439;DHT22;206;48.782;9.252;2022-07-03T13:05:53;31.90;8.00
439;DHT22;206;48.782;9.252;2022-07-03T13:08:19;31.90;7.60
439;DHT22;206;48.782;9.252;2022-07-03T13:10:57;31.90;7.60
439;DHT22;206;48.782;9.252;2022-07-03T13:13:23;31.90;7.50
439;DHT22;206;48.782;9.252;2022-07-03T13:15:49;31.80;8.00
439;DHT22;206;48.782;9.252;2022-07-03T13:18:14;31.80;7.50
439;DHT22;206;48.782;9.252;2022-07-03T13:20:40;31.80;7.50
439;DHT22;206;48.782;9.252;2022-07-03T13:23:06;31.80;7.30
439;DHT22;206;48.782;9.252;2022-07-03T13:25:34;31.90;7.20
439;DHT22;206;48.782;9.252;2022-07-03T13:30:30;32.10;7.00
439;DHT22;206;48.782;9.252;2022-07-03T13:32:55;32.10;6.50
439;DHT22;206;48.782;9.252;2022-07-03T13:35:21;32.10;6.40
439;DHT22;206;48.782;9.252;2022-07-03T13:37:46;32.10;6.70
439;DHT22;206;48.782;9.252;2022-07-03T13:40:12;32.10;6.40
439;DHT22;206;48.782;9.252;2022-07-03T13:42:38;32.10;6.20
439;DHT22;206;48.782;9.252;2022-07-03T13:45:03;31.90;5.80
439;DHT22;206;48.782;9.252;2022-07-03T13:47:30;31.80;6.60
439;DHT22;206;48.782;9.252;2022-07-03T13:49:55;31.80;7.00
439;DHT22;206;48.782;9.252;2022-07-03T13:52:21;31.80;6.50
439;DHT22;206;48.782;9.252;2022-07-03T13:54:46;31.70;6.70
439;DHT22;206;48.782;9.252;2022-07-03T13:57:13;31.70;8.80
439;DHT22;206;48.782;9.252;2022-07-03T13:59:39;31.60;9.60
439;DHT22;206;48.782;9.252;2022-07-03T14:02:05;31.60;9.50
439;DHT22;206;48.782;9.252;2022-07-03T14:04:31;31.60;9.70
439;DHT22;206;48.782;9.252;2022-07-03T14:06:57;31.50;9.70
439;DHT22;206;48.782;9.252;2022-07-03T14:09:23;31.60;9.40
439;DHT22;206;48.782;9.252;2022-07-03T14:11:50;31.60;9.40
439;DHT22;206;48.782;9.252;2022-07-03T14:14:16;31.60;9.50
439;DHT22;206;48.782;9.252;2022-07-03T14:16:41;31.60;9.10
439;DHT22;206;48.782;9.252;2022-07-03T14:19:07;31.60;9.00
439;DHT22;206;48.782;9.252;2022-07-03T14:21:34;31.60;9.30
439;DHT22;206;48.782;9.252;2022-07-03T14:24:00;31.60;9.20
439;DHT22;206;48.782;9.252;2022-07-03T14:26:26;31.60;9.70
439;DHT22;206;48.782;9.252;2022-07-03T14:29:10;31.60;8.60
439;DHT22;206;48.782;9.252;2022-07-03T14:31:55;31.50;9.00
439;DHT22;206;48.782;9.252;2022-07-03T14:34:40;31.50;9.20
439;DHT22;206;48.782;9.252;2022-07-03T14:37:06;31.40;9.20
439;DHT22;206;48.782;9.252;2022-07-03T14:39:31;31.50;9.90
439;DHT22;206;48.782;9.252;2022-07-03T14:41:57;31.50;10.10
439;DHT22;206;48.782;9.252;2022-07-03T14:44:23;31.50;10.00
439;DHT22;206;48.782;9.252;2022-07-03T14:46:51;31.50;10.10
439;DHT22;206;48.782;9.252;2022-07-03T14:49:17;31.50;10.00
439;DHT22;206;48.782;9.252;2022-07-03T14:51:43;31.50;9.90
439;DHT22;206;48.782;9.252;2022-07-03T14:54:10;31.60;9.10
439;DHT22;206;48.782;9.252;2022-07-03T14:56:39;31.50;9.00
439;DHT22;206;48.782;9.252;2022-07-03T14:59:08;31.50;9.70
439;DHT22;206;48.782;9.252;2022-07-03T15:01:40;31.50;10.60
439;DHT22;206;48.782;9.252;2022-07-03T15:04:12;31.50;10.30
439;DHT22;206;48.782;9.252;2022-07-03T15:06:40;31.50;10.20
439;DHT22;206;48.782;9.252;2022-07-03T15:09:07;31.60;10.50
439;DHT22;206;48.782;9.252;2022-07-03T15:11:34;31.60;10.60
439;DHT22;206;48.782;9.252;2022-07-03T15:14:23;31.60;10.40
439;DHT22;206;48.782;9.252;2022-07-03T15:16:51;31.70;10.30
439;DHT22;206;48.782;9.252;2022-07-03T15:19:19;31.60;10.60
439;DHT22;206;48.782;9.252;2022-07-03T15:21:47;31.60;10.30
439;DHT22;206;48.782;9.252;2022-07-03T15:24:14;31.60;10.00
439;DHT22;206;48.782;9.252;2022-07-03T15:26:41;31.60;10.00
439;DHT22;206;48.782;9.252;2022-07-03T15:29:10;31.60;10.10
439;DHT22;206;48.782;9.252;2022-07-03T15:31:36;31.60;10.30
439;DHT22;206;48.782;9.252;2022-07-03T15:34:05;31.60;10.40
439;DHT22;206;48.782;9.252;2022-07-03T15:36:49;31.50;10.00
439;DHT22;206;48.782;9.252;2022-07-03T15:39:28;31.50;10.20
439;DHT22;206;48.782;9.252;2022-07-03T15:42:17;31.50;10.20
439;DHT22;206;48.782;9.252;2022-07-03T15:45:01;31.60;10.40
439;DHT22;206;48.782;9.252;2022-07-03T15:50:00;31.60;10.20
439;DHT22;206;48.782;9.252;2022-07-03T15:52:29;31.70;10.10
439;DHT22;206;48.782;9.252;2022-07-03T15:55:06;31.60;10.00
439;DHT22;206;48.782;9.252;2022-07-03T15:57:54;31.50;10.20
439;DHT22;206;48.782;9.252;2022-07-03T16:00:23;31.60;9.80
439;DHT22;206;48.782;9.252;2022-07-03T16:05:32;31.50;9.40
439;DHT22;206;48.782;9.252;2022-07-03T16:08:00;31.50;9.80
439;DHT22;206;48.782;9.252;2022-07-03T16:10:27;31.40;10.00
439;DHT22;206;48.782;9.252;2022-07-03T16:12:55;31.40;9.70
439;DHT22;206;48.782;9.252;2022-07-03T16:15:24;31.40;10.00
439;DHT22;206;48.782;9.252;2022-07-03T16:17:52;31.40;10.20
439;DHT22;206;48.782;9.252;2022-07-03T16:20:20;31.30;9.90
439;DHT22;206;48.782;9.252;2022-07-03T16:22:47;31.30;9.60
439;DHT22;206;48.782;9.252;2022-07-03T16:25:13;31.30;9.80
439;DHT22;206;48.782;9.252;2022-07-03T16:27:39;31.30;9.60
439;DHT22;206;48.782;9.252;2022-07-03T16:30:05;31.20;9.80
439;DHT22;206;48.782;9.252;2022-07-03T16:32:39;31.20;10.00
439;DHT22;206;48.782;9.252;2022-07-03T16:37:58;31.20;9.50
439;DHT22;206;48.782;9.252;2022-07-03T16:40:29;31.10;9.70
439;DHT22;206;48.782;9.252;2022-07-03T16:42:57;31.20;9.70
439;DHT22;206;48.782;9.252;2022-07-03T16:45:27;31.10;9.60
439;DHT22;206;48.782;9.252;2022-07-03T16:47:58;31.10;9.50
439;DHT22;206;48.782;9.252;2022-07-03T16:50:26;31.10;9.60
439;DHT22;206;48.782;9.252;2022-07-03T16:52:54;31.10;9.60
439;DHT22;206;48.782;9.252;2022-07-03T16:55:21;31.10;9.50
439;DHT22;206;48.782;9.252;2022-07-03T16:57:52;31.10;9.70
439;DHT22;206;48.782;9.252;2022-07-03T17:00:21;31.10;9.60
439;DHT22;206;48.782;9.252;2022-07-03T17:02:48;31.10;10.10
439;DHT22;206;48.782;9.252;2022-07-03T17:05:16;31.00;10.00
439;DHT22;206;48.782;9.252;2022-07-03T17:07:45;30.90;9.90
439;DHT22;206;48.782;9.252;2022-07-03T17:10:13;30.90;10.10
439;DHT22;206;48.782;9.252;2022-07-03T17:12:48;30.90;10.00
439;DHT22;206;48.782;9.252;2022-07-03T17:15:17;30.90;10.10
439;DHT22;206;48.782;9.252;2022-07-03T17:17:59;30.90;10.40
439;DHT22;206;48.782;9.252;2022-07-03T17:20:29;30.90;10.20
439;DHT22;206;48.782;9.252;2022-07-03T17:23:09;30.80;10.40
439;DHT22;206;48.782;9.252;2022-07-03T17:25:45;30.80;10.60
439;DHT22;206;48.782;9.252;2022-07-03T17:28:13;30.70;10.60
439;DHT22;206;48.782;9.252;2022-07-03T17:30:44;30.70;10.80
439;DHT22;206;48.782;9.252;2022-07-03T17:33:12;30.70;11.20
439;DHT22;206;48.782;9.252;2022-07-03T17:35:43;30.70;11.40
439;DHT22;206;48.782;9.252;2022-07-03T17:38:14;30.70;11.50
439;DHT22;206;48.782;9.252;2022-07-03T17:40:43;30.70;11.30
439;DHT22;206;48.782;9.252;2022-07-03T17:43:10;30.60;11.10
439;DHT22;206;48.782;9.252;2022-07-03T17:45:37;30.50;11.10
439;DHT22;206;48.782;9.252;2022-07-03T17:48:03;30.40;10.60
439;DHT22;206;48.782;9.252;2022-07-03T17:50:30;30.40;11.20
439;DHT22;206;48.782;9.252;2022-07-03T17:52:56;30.30;11.30
439;DHT22;206;48.782;9.252;2022-07-03T17:55:23;30.20;11.60
439;DHT22;206;48.782;9.252;2022-07-03T17:57:50;30.10;11.40
439;DHT22;206;48.782;9.252;2022-07-03T18:00:21;30.00;11.50
439;DHT22;206;48.782;9.252;2022-07-03T18:02:49;30.00;11.60
439;DHT22;206;48.782;9.252;2022-07-03T18:05:16;29.90;12.10
439;DHT22;206;48.782;9.252;2022-07-03T18:08:10;29.80;12.20
439;DHT22;206;48.782;9.252;2022-07-03T18:10:53;29.80;12.60
439;DHT22;206;48.782;9.252;2022-07-03T18:15:58;29.70;12.60
439;DHT22;206;48.782;9.252;2022-07-03T18:18:37;29.70;11.90
439;DHT22;206;48.782;9.252;2022-07-03T18:21:07;29.70;12.30
439;DHT22;206;48.782;9.252;2022-07-03T18:23:36;29.60;12.30
439;DHT22;206;48.782;9.252;2022-07-03T18:26:03;29.60;13.10